sensor_id;sensor_type;location;lat;lon;timestamp;temperature;humidity
31799;DHT22;18374;51.136;3.502;2023-03-18T00:01:10;10.60;99.90
31799;DHT22;18374;51.136;3.502;2023-03-18T00:03:38;10.70;99.90
31799;DHT22;18374;51.136;3.502;2023-03-18T00:06:09;10.80;99.90
31799;DHT22;18374;51.136;3.502;2023-03-18T00:08:39;10.80;99.90
31799;DHT22;18374;51.136;3.502;2023-03-18T00:11:08;10.80;99.90
31799;DHT22;18374;51.136;3.502;2023-03-18T00:13:37;10.90;99.90
31799;DHT22;18374;51.136;3.502;2023-03-18T00:16:06;10.90;99.90
31799;DHT22;18374;51.136;3.502;2023-03-18T00:18:37;10.90;99.90
31799;DHT22;18374;51.136;3.502;2023-03-18T00:21:06;11.00;99.90
31799;DHT22;18374;51.136;3.502;2023-03-18T00:23:35;11.00;99.90
31799;DHT22;18374;51.136;3.502;2023-03-18T00:26:03;11.00;99.90
31799;DHT22;18374;51.136;3.502;2023-03-18T00:28:31;10.90;99.90
31799;DHT22;18374;51.136;3.502;2023-03-18T00:31:05;10.90;99.90
31799;DHT22;18374;51.136;3.502;2023-03-18T00:33:39;10.90;99.90
31799;DHT22;18374;51.136;3.502;2023-03-18T00:36:11;10.80;99.90
31799;DHT22;18374;51.136;3.502;2023-03-18T00:38:44;10.80;99.90
31799;DHT22;18374;51.136;3.502;2023-03-18T00:41:13;10.80;99.90
31799;DHT22;18374;51.136;3.502;2023-03-18T00:43:44;10.90;99.90
31799;DHT22;18374;51.136;3.502;2023-03-18T00:46:17;10.80;99.90
31799;DHT22;18374;51.136;3.502;2023-03-18T00:48:46;10.80;99.90
31799;DHT22;18374;51.136;3.502;2023-03-18T00:51:15;10.80;99.90
31799;DHT22;18374;51.136;3.502;2023-03-18T00:53:46;10.80;99.90
31799;DHT22;18374;51.136;3.502;2023-03-18T00:56:17;10.70;99.90
31799;DHT22;18374;51.136;3.502;2023-03-18T00:58:47;10.80;99.90
31799;DHT22;18374;51.136;3.502;2023-03-18T01:01:17;10.80;99.90
31799;DHT22;18374;51.136;3.502;2023-03-18T01:03:47;10.70;99.90
31799;DHT22;18374;51.136;3.502;2023-03-18T01:06:24;10.70;99.90
31799;DHT22;18374;51.136;3.502;2023-03-18T01:08:56;10.70;99.90
31799;DHT22;18374;51.136;3.502;2023-03-18T01:11:25;10.70;99.90
31799;DHT22;18374;51.136;3.502;2023-03-18T01:13:54;10.70;99.90
31799;DHT22;18374;51.136;3.502;2023-03-18T01:16:22;10.70;99.90
31799;DHT22;18374;51.136;3.502;2023-03-18T01:18:51;10.70;99.90
31799;DHT22;18374;51.136;3.502;2023-03-18T01:21:20;10.60;99.90
31799;DHT22;18374;51.136;3.502;2023-03-18T01:23:53;10.60;99.90
31799;DHT22;18374;51.136;3.502;2023-03-18T01:26:21;10.60;99.90
31799;DHT22;18374;51.136;3.502;2023-03-18T01:28:49;10.60;99.90
31799;DHT22;18374;51.136;3.502;2023-03-18T01:31:18;10.60;99.90
31799;DHT22;18374;51.136;3.502;2023-03-18T01:33:46;10.60;99.90
31799;DHT22;18374;51.136;3.502;2023-03-18T01:36:15;10.60;99.90
31799;DHT22;18374;51.136;3.502;2023-03-18T01:38:51;10.60;99.90
31799;DHT22;18374;51.136;3.502;2023-03-18T01:41:19;10.60;99.90
31799;DHT22;18374;51.136;3.502;2023-03-18T01:43:47;10.60;99.90
31799;DHT22;18374;51.136;3.502;2023-03-18T01:46:45;10.50;99.90
31799;DHT22;18374;51.136;3.502;2023-03-18T01:49:55;10.50;99.90
31799;DHT22;18374;51.136;3.502;2023-03-18T01:52:26;10.50;99.90
31799;DHT22;18374;51.136;3.502;2023-03-18T01:55:02;10.50;99.90
31799;DHT22;18374;51.136;3.502;2023-03-18T01:57:37;10.50;99.90
31799;DHT22;18374;51.136;3.502;2023-03-18T02:00:05;10.50;99.90
31799;DHT22;18374;51.136;3.502;2023-03-18T02:02:41;10.50;99.90
31799;DHT22;18374;51.136;3.502;2023-03-18T02:05:16;10.50;99.90
31799;DHT22;18374;51.136;3.502;2023-03-18T02:07:46;10.50;99.90
31799;DHT22;18374;51.136;3.502;2023-03-18T02:10:26;10.40;99.90
31799;DHT22;18374;51.136;3.502;2023-03-18T02:13:04;10.40;99.90
31799;DHT22;18374;51.136;3.502;2023-03-18T02:16:03;10.40;99.90
31799;DHT22;18374;51.136;3.502;2023-03-18T02:18:43;10.40;99.90
31799;DHT22;18374;51.136;3.502;2023-03-18T02:21:41;10.40;99.90
31799;DHT22;18374;51.136;3.502;2023-03-18T02:27:25;10.40;99.90
31799;DHT22;18374;51.136;3.502;2023-03-18T02:30:00;10.40;99.90
31799;DHT22;18374;51.136;3.502;2023-03-18T02:32:36;10.30;99.90
31799;DHT22;18374;51.136;3.502;2023-03-18T02:35:09;10.30;99.90
31799;DHT22;18374;51.136;3.502;2023-03-18T02:37:39;10.20;99.90
31799;DHT22;18374;51.136;3.502;2023-03-18T02:42:46;10.30;99.90
31799;DHT22;18374;51.136;3.502;2023-03-18T02:48:41;10.30;99.90
31799;DHT22;18374;51.136;3.502;2023-03-18T02:51:12;10.20;99.90
31799;DHT22;18374;51.136;3.502;2023-03-18T02:53:43;10.20;99.90
31799;DHT22;18374;51.136;3.502;2023-03-18T02:56:11;10.20;99.90
31799;DHT22;18374;51.136;3.502;2023-03-18T02:58:41;10.10;99.90
31799;DHT22;18374;51.136;3.502;2023-03-18T03:01:10;10.10;99.90
31799;DHT22;18374;51.136;3.502;2023-03-18T03:03:39;10.10;99.90
31799;DHT22;18374;51.136;3.502;2023-03-18T03:06:10;10.10;99.90
31799;DHT22;18374;51.136;3.502;2023-03-18T03:08:38;10.00;99.90
31799;DHT22;18374;51.136;3.502;2023-03-18T03:11:06;10.00;99.90
31799;DHT22;18374;51.136;3.502;2023-03-18T03:13:38;10.00;99.90
31799;DHT22;18374;51.136;3.502;2023-03-18T03:16:09;10.00;99.90
31799;DHT22;18374;51.136;3.502;2023-03-18T03:18:37;9.90;99.90
31799;DHT22;18374;51.136;3.502;2023-03-18T03:21:05;9.80;99.90
31799;DHT22;18374;51.136;3.502;2023-03-18T03:23:34;9.80;99.90
31799;DHT22;18374;51.136;3.502;2023-03-18T03:26:03;9.80;99.90
31799;DHT22;18374;51.136;3.502;2023-03-18T03:28:32;9.80;99.90
31799;DHT22;18374;51.136;3.502;2023-03-18T03:31:01;9.80;99.90
31799;DHT22;18374;51.136;3.502;2023-03-18T03:33:29;9.70;99.90
31799;DHT22;18374;51.136;3.502;2023-03-18T03:35:57;9.70;99.90
31799;DHT22;18374;51.136;3.502;2023-03-18T03:38:25;9.70;99.90
31799;DHT22;18374;51.136;3.502;2023-03-18T03:40:54;9.70;99.90
31799;DHT22;18374;51.136;3.502;2023-03-18T03:43:22;9.60;99.90
31799;DHT22;18374;51.136;3.502;2023-03-18T03:45:50;9.60;99.90
31799;DHT22;18374;51.136;3.502;2023-03-18T03:48:17;9.50;99.90
31799;DHT22;18374;51.136;3.502;2023-03-18T03:50:45;9.60;99.90
31799;DHT22;18374;51.136;3.502;2023-03-18T03:53:14;9.50;99.90
31799;DHT22;18374;51.136;3.502;2023-03-18T03:55:42;9.50;99.90
31799;DHT22;18374;51.136;3.502;2023-03-18T03:58:10;9.60;99.90
31799;DHT22;18374;51.136;3.502;2023-03-18T04:00:38;9.50;99.90
31799;DHT22;18374;51.136;3.502;2023-03-18T04:03:06;9.50;99.90
31799;DHT22;18374;51.136;3.502;2023-03-18T04:05:34;9.50;99.90
31799;DHT22;18374;51.136;3.502;2023-03-18T04:08:04;9.40;99.90
31799;DHT22;18374;51.136;3.502;2023-03-18T04:10:37;9.30;99.90
31799;DHT22;18374;51.136;3.502;2023-03-18T04:13:09;9.30;99.90
31799;DHT22;18374;51.136;3.502;2023-03-18T04:15:39;9.30;99.90
31799;DHT22;18374;51.136;3.502;2023-03-18T04:18:11;9.20;99.90
31799;DHT22;18374;51.136;3.502;2023-03-18T04:20:40;9.20;99.90
31799;DHT22;18374;51.136;3.502;2023-03-18T04:23:33;9.10;99.90
31799;DHT22;18374;51.136;3.502;2023-03-18T04:26:01;9.10;99.90
31799;DHT22;18374;51.136;3.502;2023-03-18T04:28:32;9.10;99.90
31799;DHT22;18374;51.136;3.502;2023-03-18T04:31:03;9.00;99.90
31799;DHT22;18374;51.136;3.502;2023-03-18T04:33:32;9.00;99.90
31799;DHT22;18374;51.136;3.502;2023-03-18T04:36:00;9.00;99.90
31799;DHT22;18374;51.136;3.502;2023-03-18T04:38:29;9.00;99.90
31799;DHT22;18374;51.136;3.502;2023-03-18T04:40:56;9.00;99.90
31799;DHT22;18374;51.136;3.502;2023-03-18T04:43:24;9.00;99.90
31799;DHT22;18374;51.136;3.502;2023-03-18T04:45:52;9.00;99.90
31799;DHT22;18374;51.136;3.502;2023-03-18T04:48:20;9.00;99.90
31799;DHT22;18374;51.136;3.502;2023-03-18T04:50:49;9.00;99.90
31799;DHT22;18374;51.136;3.502;2023-03-18T04:53:23;9.00;99.90
31799;DHT22;18374;51.136;3.502;2023-03-18T04:55:52;8.90;99.90
31799;DHT22;18374;51.136;3.502;2023-03-18T04:58:25;8.90;99.90
31799;DHT22;18374;51.136;3.502;2023-03-18T05:01:08;8.90;99.90
31799;DHT22;18374;51.136;3.502;2023-03-18T05:03:39;8.80;99.90
31799;DHT22;18374;51.136;3.502;2023-03-18T05:06:19;8.90;99.90
31799;DHT22;18374;51.136;3.502;2023-03-18T05:08:59;8.90;99.90
31799;DHT22;18374;51.136;3.502;2023-03-18T05:11:31;8.90;99.90
31799;DHT22;18374;51.136;3.502;2023-03-18T05:14:07;8.80;99.90
31799;DHT22;18374;51.136;3.502;2023-03-18T05:16:42;8.90;99.90
31799;DHT22;18374;51.136;3.502;2023-03-18T05:19:11;8.90;99.90
31799;DHT22;18374;51.136;3.502;2023-03-18T05:21:46;8.90;99.90
31799;DHT22;18374;51.136;3.502;2023-03-18T05:24:15;8.90;99.90
31799;DHT22;18374;51.136;3.502;2023-03-18T05:26:43;8.90;99.90
31799;DHT22;18374;51.136;3.502;2023-03-18T05:29:12;9.00;99.90
31799;DHT22;18374;51.136;3.502;2023-03-18T05:32:00;8.90;99.90
31799;DHT22;18374;51.136;3.502;2023-03-18T05:34:29;8.90;99.90
31799;DHT22;18374;51.136;3.502;2023-03-18T05:36:58;9.00;99.90
31799;DHT22;18374;51.136;3.502;2023-03-18T05:39:26;9.00;99.90
31799;DHT22;18374;51.136;3.502;2023-03-18T05:41:54;9.00;99.90
31799;DHT22;18374;51.136;3.502;2023-03-18T05:44:26;9.10;99.90
31799;DHT22;18374;51.136;3.502;2023-03-18T05:46:58;9.10;99.90
31799;DHT22;18374;51.136;3.502;2023-03-18T05:49:52;9.10;99.90
31799;DHT22;18374;51.136;3.502;2023-03-18T05:52:22;9.20;99.90
31799;DHT22;18374;51.136;3.502;2023-03-18T05:54:53;9.10;99.90
31799;DHT22;18374;51.136;3.502;2023-03-18T05:57:26;9.20;99.90
31799;DHT22;18374;51.136;3.502;2023-03-18T06:00:01;9.10;99.90
31799;DHT22;18374;51.136;3.502;2023-03-18T06:02:41;9.10;99.90
31799;DHT22;18374;51.136;3.502;2023-03-18T06:05:11;9.20;99.90
31799;DHT22;18374;51.136;3.502;2023-03-18T06:07:40;9.10;99.90
31799;DHT22;18374;51.136;3.502;2023-03-18T06:10:08;9.20;99.90
31799;DHT22;18374;51.136;3.502;2023-03-18T06:12:37;9.20;99.90
31799;DHT22;18374;51.136;3.502;2023-03-18T06:15:06;9.20;99.90
31799;DHT22;18374;51.136;3.502;2023-03-18T06:17:35;9.20;99.90
31799;DHT22;18374;51.136;3.502;2023-03-18T06:20:05;9.20;99.90
31799;DHT22;18374;51.136;3.502;2023-03-18T06:22:35;9.10;99.90
31799;DHT22;18374;51.136;3.502;2023-03-18T06:25:04;9.10;99.90
31799;DHT22;18374;51.136;3.502;2023-03-18T06:27:37;9.10;99.90
31799;DHT22;18374;51.136;3.502;2023-03-18T06:30:06;9.00;99.90
31799;DHT22;18374;51.136;3.502;2023-03-18T06:32:36;9.00;99.90
31799;DHT22;18374;51.136;3.502;2023-03-18T06:35:04;9.00;99.90
31799;DHT22;18374;51.136;3.502;2023-03-18T06:37:33;9.00;99.90
31799;DHT22;18374;51.136;3.502;2023-03-18T06:40:01;9.00;99.90
31799;DHT22;18374;51.136;3.502;2023-03-18T06:42:30;9.10;99.90
31799;DHT22;18374;51.136;3.502;2023-03-18T06:45:16;9.10;99.90
31799;DHT22;18374;51.136;3.502;2023-03-18T06:47:53;9.20;99.90
31799;DHT22;18374;51.136;3.502;2023-03-18T06:50:21;9.20;99.90
31799;DHT22;18374;51.136;3.502;2023-03-18T06:52:51;9.20;99.90
31799;DHT22;18374;51.136;3.502;2023-03-18T06:55:25;9.20;99.90
31799;DHT22;18374;51.136;3.502;2023-03-18T06:57:54;9.30;99.90
31799;DHT22;18374;51.136;3.502;2023-03-18T07:00:29;9.30;99.90
31799;DHT22;18374;51.136;3.502;2023-03-18T07:02:59;9.30;99.90
31799;DHT22;18374;51.136;3.502;2023-03-18T07:05:28;9.40;99.90
31799;DHT22;18374;51.136;3.502;2023-03-18T07:07:57;9.40;99.90
31799;DHT22;18374;51.136;3.502;2023-03-18T07:10:27;9.50;99.90
31799;DHT22;18374;51.136;3.502;2023-03-18T07:13:04;9.50;99.90
31799;DHT22;18374;51.136;3.502;2023-03-18T07:15:31;9.70;99.90
31799;DHT22;18374;51.136;3.502;2023-03-18T07:18:01;9.70;99.90
31799;DHT22;18374;51.136;3.502;2023-03-18T07:20:30;9.70;99.90
31799;DHT22;18374;51.136;3.502;2023-03-18T07:22:59;9.80;99.90
31799;DHT22;18374;51.136;3.502;2023-03-18T07:25:28;9.90;99.90
31799;DHT22;18374;51.136;3.502;2023-03-18T07:27:58;10.10;99.90
31799;DHT22;18374;51.136;3.502;2023-03-18T07:30:31;10.20;99.90
31799;DHT22;18374;51.136;3.502;2023-03-18T07:33:00;10.20;99.90
31799;DHT22;18374;51.136;3.502;2023-03-18T07:35:28;10.20;99.90
31799;DHT22;18374;51.136;3.502;2023-03-18T07:37:56;10.20;99.90
31799;DHT22;18374;51.136;3.502;2023-03-18T07:40:24;10.30;99.90
31799;DHT22;18374;51.136;3.502;2023-03-18T07:42:52;10.30;99.90
31799;DHT22;18374;51.136;3.502;2023-03-18T07:45:20;10.30;99.90
31799;DHT22;18374;51.136;3.502;2023-03-18T07:47:47;10.30;99.90
31799;DHT22;18374;51.136;3.502;2023-03-18T07:50:15;10.30;99.90
31799;DHT22;18374;51.136;3.502;2023-03-18T07:52:44;10.30;99.90
31799;DHT22;18374;51.136;3.502;2023-03-18T07:55:12;10.40;99.90
31799;DHT22;18374;51.136;3.502;2023-03-18T07:57:40;10.40;99.90
31799;DHT22;18374;51.136;3.502;2023-03-18T08:00:09;10.50;99.90
31799;DHT22;18374;51.136;3.502;2023-03-18T08:02:41;10.50;99.90
31799;DHT22;18374;51.136;3.502;2023-03-18T08:05:10;10.60;99.90
31799;DHT22;18374;51.136;3.502;2023-03-18T08:07:37;10.60;99.90
31799;DHT22;18374;51.136;3.502;2023-03-18T08:10:06;10.60;99.90
31799;DHT22;18374;51.136;3.502;2023-03-18T08:12:35;10.60;99.90
31799;DHT22;18374;51.136;3.502;2023-03-18T08:15:20;10.60;99.90
31799;DHT22;18374;51.136;3.502;2023-03-18T08:17:49;10.70;99.90
31799;DHT22;18374;51.136;3.502;2023-03-18T08:20:17;10.80;99.90
31799;DHT22;18374;51.136;3.502;2023-03-18T08:22:45;10.80;99.90
31799;DHT22;18374;51.136;3.502;2023-03-18T08:25:13;10.80;99.90
31799;DHT22;18374;51.136;3.502;2023-03-18T08:27:41;10.90;99.90
31799;DHT22;18374;51.136;3.502;2023-03-18T08:30:10;11.00;99.90
31799;DHT22;18374;51.136;3.502;2023-03-18T08:32:38;10.90;99.90
31799;DHT22;18374;51.136;3.502;2023-03-18T08:35:06;11.00;99.90
31799;DHT22;18374;51.136;3.502;2023-03-18T08:37:36;11.10;99.90
31799;DHT22;18374;51.136;3.502;2023-03-18T08:40:05;11.10;99.90
31799;DHT22;18374;51.136;3.502;2023-03-18T08:42:33;11.10;99.90
31799;DHT22;18374;51.136;3.502;2023-03-18T08:45:01;11.10;99.90
31799;DHT22;18374;51.136;3.502;2023-03-18T08:47:30;11.20;99.90
31799;DHT22;18374;51.136;3.502;2023-03-18T08:49:57;11.20;99.90
31799;DHT22;18374;51.136;3.502;2023-03-18T08:52:25;11.40;99.90
31799;DHT22;18374;51.136;3.502;2023-03-18T08:54:53;11.40;99.90
31799;DHT22;18374;51.136;3.502;2023-03-18T08:57:21;11.40;99.90
31799;DHT22;18374;51.136;3.502;2023-03-18T08:59:49;11.40;99.90
31799;DHT22;18374;51.136;3.502;2023-03-18T09:02:17;11.40;99.90
31799;DHT22;18374;51.136;3.502;2023-03-18T09:04:45;11.50;99.90
31799;DHT22;18374;51.136;3.502;2023-03-18T09:07:14;11.40;99.90
31799;DHT22;18374;51.136;3.502;2023-03-18T09:09:45;11.40;99.90
31799;DHT22;18374;51.136;3.502;2023-03-18T09:12:13;11.30;99.90
31799;DHT22;18374;51.136;3.502;2023-03-18T09:14:41;11.30;99.90
31799;DHT22;18374;51.136;3.502;2023-03-18T09:17:10;11.30;99.90
31799;DHT22;18374;51.136;3.502;2023-03-18T09:19:38;11.40;99.90
31799;DHT22;18374;51.136;3.502;2023-03-18T09:22:06;11.40;99.90
31799;DHT22;18374;51.136;3.502;2023-03-18T09:24:35;11.50;99.90
31799;DHT22;18374;51.136;3.502;2023-03-18T09:27:03;11.60;99.90
31799;DHT22;18374;51.136;3.502;2023-03-18T09:29:31;11.70;99.90
31799;DHT22;18374;51.136;3.502;2023-03-18T09:31:59;11.80;99.90
31799;DHT22;18374;51.136;3.502;2023-03-18T09:34:27;11.80;99.90
31799;DHT22;18374;51.136;3.502;2023-03-18T09:36:55;11.80;99.90
31799;DHT22;18374;51.136;3.502;2023-03-18T09:39:24;11.80;99.90
31799;DHT22;18374;51.136;3.502;2023-03-18T09:44:44;11.90;99.90
31799;DHT22;18374;51.136;3.502;2023-03-18T09:53:23;11.90;99.90
31799;DHT22;18374;51.136;3.502;2023-03-18T09:56:06;12.00;99.90
31799;DHT22;18374;51.136;3.502;2023-03-18T09:58:58;12.10;99.90
31799;DHT22;18374;51.136;3.502;2023-03-18T10:01:32;12.30;99.90
31799;DHT22;18374;51.136;3.502;2023-03-18T10:04:14;12.30;99.90
31799;DHT22;18374;51.136;3.502;2023-03-18T10:06:46;12.40;99.90
31799;DHT22;18374;51.136;3.502;2023-03-18T10:09:44;12.40;99.90
31799;DHT22;18374;51.136;3.502;2023-03-18T10:12:31;12.60;99.90
31799;DHT22;18374;51.136;3.502;2023-03-18T10:29:10;13.60;99.90
31799;DHT22;18374;51.136;3.502;2023-03-18T10:38:01;14.10;99.90
31799;DHT22;18374;51.136;3.502;2023-03-18T10:40:45;14.40;99.90
31799;DHT22;18374;51.136;3.502;2023-03-18T10:43:20;14.50;99.90
31799;DHT22;18374;51.136;3.502;2023-03-18T10:46:02;14.50;99.90
31799;DHT22;18374;51.136;3.502;2023-03-18T10:48:40;14.60;99.90
31799;DHT22;18374;51.136;3.502;2023-03-18T10:51:29;14.70;99.90
31799;DHT22;18374;51.136;3.502;2023-03-18T10:54:17;14.80;99.90
31799;DHT22;18374;51.136;3.502;2023-03-18T10:56:50;14.90;99.90
31799;DHT22;18374;51.136;3.502;2023-03-18T11:04:26;15.40;99.90
31799;DHT22;18374;51.136;3.502;2023-03-18T11:06:57;15.20;99.90
31799;DHT22;18374;51.136;3.502;2023-03-18T11:09:30;15.50;99.90
31799;DHT22;18374;51.136;3.502;2023-03-18T11:12:05;15.70;99.90
31799;DHT22;18374;51.136;3.502;2023-03-18T11:14:35;15.70;99.90
31799;DHT22;18374;51.136;3.502;2023-03-18T11:17:16;15.70;99.90
31799;DHT22;18374;51.136;3.502;2023-03-18T11:22:44;15.80;99.90
31799;DHT22;18374;51.136;3.502;2023-03-18T11:25:22;15.80;99.90
31799;DHT22;18374;51.136;3.502;2023-03-18T11:27:59;15.80;99.90
31799;DHT22;18374;51.136;3.502;2023-03-18T11:30:43;15.70;99.90
31799;DHT22;18374;51.136;3.502;2023-03-18T11:33:15;15.80;99.90
31799;DHT22;18374;51.136;3.502;2023-03-18T11:35:51;15.80;99.90
31799;DHT22;18374;51.136;3.502;2023-03-18T11:38:31;15.90;99.90
31799;DHT22;18374;51.136;3.502;2023-03-18T11:41:14;16.00;99.90
31799;DHT22;18374;51.136;3.502;2023-03-18T11:44:03;16.20;99.90
31799;DHT22;18374;51.136;3.502;2023-03-18T11:46:43;16.30;99.90
31799;DHT22;18374;51.136;3.502;2023-03-18T11:49:16;16.50;99.90
31799;DHT22;18374;51.136;3.502;2023-03-18T12:01:33;17.10;99.90
31799;DHT22;18374;51.136;3.502;2023-03-18T12:10:24;16.80;99.90
31799;DHT22;18374;51.136;3.502;2023-03-18T12:21:41;17.20;99.90
31799;DHT22;18374;51.136;3.502;2023-03-18T12:42:01;16.30;99.90
31799;DHT22;18374;51.136;3.502;2023-03-18T12:45:01;16.30;99.90
31799;DHT22;18374;51.136;3.502;2023-03-18T12:48:08;16.30;99.90
31799;DHT22;18374;51.136;3.502;2023-03-18T12:50:42;16.30;99.90
31799;DHT22;18374;51.136;3.502;2023-03-18T12:53:36;16.30;99.90
31799;DHT22;18374;51.136;3.502;2023-03-18T12:56:27;16.40;99.90
31799;DHT22;18374;51.136;3.502;2023-03-18T12:59:06;16.70;99.90
31799;DHT22;18374;51.136;3.502;2023-03-18T13:04:58;16.80;99.90
31799;DHT22;18374;51.136;3.502;2023-03-18T13:07:39;16.80;99.90
31799;DHT22;18374;51.136;3.502;2023-03-18T13:10:23;17.10;99.90
31799;DHT22;18374;51.136;3.502;2023-03-18T13:12:56;17.70;99.90
31799;DHT22;18374;51.136;3.502;2023-03-18T13:15:43;17.90;99.90
31799;DHT22;18374;51.136;3.502;2023-03-18T13:18:38;17.80;99.90
31799;DHT22;18374;51.136;3.502;2023-03-18T13:21:14;17.60;99.90
31799;DHT22;18374;51.136;3.502;2023-03-18T13:24:04;17.40;99.90
31799;DHT22;18374;51.136;3.502;2023-03-18T13:26:56;17.00;99.90
31799;DHT22;18374;51.136;3.502;2023-03-18T13:32:58;16.90;99.90
31799;DHT22;18374;51.136;3.502;2023-03-18T13:44:38;16.60;99.90
31799;DHT22;18374;51.136;3.502;2023-03-18T13:47:19;16.50;99.90
31799;DHT22;18374;51.136;3.502;2023-03-18T13:49:48;16.50;99.90
31799;DHT22;18374;51.136;3.502;2023-03-18T13:52:39;16.40;99.90
31799;DHT22;18374;51.136;3.502;2023-03-18T13:55:34;16.40;99.90
31799;DHT22;18374;51.136;3.502;2023-03-18T14:00:44;16.10;99.90
31799;DHT22;18374;51.136;3.502;2023-03-18T14:13:50;15.60;99.90
31799;DHT22;18374;51.136;3.502;2023-03-18T14:21:44;15.50;99.90
31799;DHT22;18374;51.136;3.502;2023-03-18T14:29:41;15.90;99.90
31799;DHT22;18374;51.136;3.502;2023-03-18T14:37:59;15.90;99.90
31799;DHT22;18374;51.136;3.502;2023-03-18T14:40:35;15.80;99.90
31799;DHT22;18374;51.136;3.502;2023-03-18T14:43:15;15.80;99.90
31799;DHT22;18374;51.136;3.502;2023-03-18T14:45:46;15.90;99.90
31799;DHT22;18374;51.136;3.502;2023-03-18T14:48:24;16.30;99.90
31799;DHT22;18374;51.136;3.502;2023-03-18T14:50:57;17.50;99.90
31799;DHT22;18374;51.136;3.502;2023-03-18T14:58:52;17.50;99.90
31799;DHT22;18374;51.136;3.502;2023-03-18T15:04:13;17.30;99.90
31799;DHT22;18374;51.136;3.502;2023-03-18T15:06:44;17.10;99.90
31799;DHT22;18374;51.136;3.502;2023-03-18T15:09:20;16.80;99.90
31799;DHT22;18374;51.136;3.502;2023-03-18T15:11:54;16.40;99.90
31799;DHT22;18374;51.136;3.502;2023-03-18T15:14:30;16.20;99.90
31799;DHT22;18374;51.136;3.502;2023-03-18T15:17:00;16.00;99.90
31799;DHT22;18374;51.136;3.502;2023-03-18T15:19:31;15.90;99.90
31799;DHT22;18374;51.136;3.502;2023-03-18T15:22:03;15.70;99.90
31799;DHT22;18374;51.136;3.502;2023-03-18T15:24:33;15.70;99.90
31799;DHT22;18374;51.136;3.502;2023-03-18T15:32:32;15.40;99.90
31799;DHT22;18374;51.136;3.502;2023-03-18T15:37:42;15.10;99.90
31799;DHT22;18374;51.136;3.502;2023-03-18T15:42:57;14.60;99.90
31799;DHT22;18374;51.136;3.502;2023-03-18T15:45:31;14.20;99.90
31799;DHT22;18374;51.136;3.502;2023-03-18T15:48:05;13.90;99.90
31799;DHT22;18374;51.136;3.502;2023-03-18T15:50:50;13.60;99.90
31799;DHT22;18374;51.136;3.502;2023-03-18T15:53:25;13.50;99.90
31799;DHT22;18374;51.136;3.502;2023-03-18T15:56:06;13.50;99.90
31799;DHT22;18374;51.136;3.502;2023-03-18T15:58:44;13.40;99.90
31799;DHT22;18374;51.136;3.502;2023-03-18T16:01:16;13.40;99.90
31799;DHT22;18374;51.136;3.502;2023-03-18T16:03:44;13.30;99.90
31799;DHT22;18374;51.136;3.502;2023-03-18T16:06:13;13.30;99.90
31799;DHT22;18374;51.136;3.502;2023-03-18T16:08:41;13.40;99.90
31799;DHT22;18374;51.136;3.502;2023-03-18T16:11:10;13.30;99.90
31799;DHT22;18374;51.136;3.502;2023-03-18T16:13:39;13.30;99.90
31799;DHT22;18374;51.136;3.502;2023-03-18T16:16:26;13.20;99.90
31799;DHT22;18374;51.136;3.502;2023-03-18T16:18:55;13.20;99.90
31799;DHT22;18374;51.136;3.502;2023-03-18T16:21:24;13.20;99.90
31799;DHT22;18374;51.136;3.502;2023-03-18T16:23:53;13.20;99.90
31799;DHT22;18374;51.136;3.502;2023-03-18T16:26:21;13.10;99.90
31799;DHT22;18374;51.136;3.502;2023-03-18T16:28:49;13.10;99.90
31799;DHT22;18374;51.136;3.502;2023-03-18T16:31:16;13.10;99.90
31799;DHT22;18374;51.136;3.502;2023-03-18T16:33:45;13.10;99.90
31799;DHT22;18374;51.136;3.502;2023-03-18T16:36:24;13.10;99.90
31799;DHT22;18374;51.136;3.502;2023-03-18T16:38:54;13.10;99.90
31799;DHT22;18374;51.136;3.502;2023-03-18T16:41:22;13.10;99.90
31799;DHT22;18374;51.136;3.502;2023-03-18T16:43:50;13.10;99.90
31799;DHT22;18374;51.136;3.502;2023-03-18T16:46:18;13.10;99.90
31799;DHT22;18374;51.136;3.502;2023-03-18T16:48:47;13.20;99.90
31799;DHT22;18374;51.136;3.502;2023-03-18T16:51:15;13.10;99.90
31799;DHT22;18374;51.136;3.502;2023-03-18T16:53:45;13.00;99.90
31799;DHT22;18374;51.136;3.502;2023-03-18T16:56:15;12.90;99.90
31799;DHT22;18374;51.136;3.502;2023-03-18T16:58:44;12.70;99.90
31799;DHT22;18374;51.136;3.502;2023-03-18T17:01:14;12.60;99.90
31799;DHT22;18374;51.136;3.502;2023-03-18T17:03:43;12.40;99.90
31799;DHT22;18374;51.136;3.502;2023-03-18T17:06:12;12.30;99.90
31799;DHT22;18374;51.136;3.502;2023-03-18T17:08:40;12.20;99.90
31799;DHT22;18374;51.136;3.502;2023-03-18T17:11:10;12.20;99.90
31799;DHT22;18374;51.136;3.502;2023-03-18T17:13:44;12.10;99.90
31799;DHT22;18374;51.136;3.502;2023-03-18T17:16:17;12.20;99.90
31799;DHT22;18374;51.136;3.502;2023-03-18T17:18:46;12.10;99.90
31799;DHT22;18374;51.136;3.502;2023-03-18T17:21:14;12.10;99.90
31799;DHT22;18374;51.136;3.502;2023-03-18T17:23:43;12.10;99.90
31799;DHT22;18374;51.136;3.502;2023-03-18T17:26:12;12.10;99.90
31799;DHT22;18374;51.136;3.502;2023-03-18T17:28:44;12.00;99.90
31799;DHT22;18374;51.136;3.502;2023-03-18T17:31:14;12.00;99.90
31799;DHT22;18374;51.136;3.502;2023-03-18T17:33:43;12.00;99.90
31799;DHT22;18374;51.136;3.502;2023-03-18T17:36:10;12.00;99.90
31799;DHT22;18374;51.136;3.502;2023-03-18T17:38:38;12.00;99.90
31799;DHT22;18374;51.136;3.502;2023-03-18T17:41:18;12.00;99.90
31799;DHT22;18374;51.136;3.502;2023-03-18T17:43:47;12.00;99.90
31799;DHT22;18374;51.136;3.502;2023-03-18T17:46:15;12.00;99.90
31799;DHT22;18374;51.136;3.502;2023-03-18T17:48:42;12.00;99.90
31799;DHT22;18374;51.136;3.502;2023-03-18T17:51:16;12.00;99.90
31799;DHT22;18374;51.136;3.502;2023-03-18T17:53:48;12.00;99.90
31799;DHT22;18374;51.136;3.502;2023-03-18T17:56:18;12.00;99.90
31799;DHT22;18374;51.136;3.502;2023-03-18T17:58:48;12.00;99.90
31799;DHT22;18374;51.136;3.502;2023-03-18T18:01:25;12.00;99.90
31799;DHT22;18374;51.136;3.502;2023-03-18T18:03:56;11.90;99.90
31799;DHT22;18374;51.136;3.502;2023-03-18T18:06:27;11.90;99.90
31799;DHT22;18374;51.136;3.502;2023-03-18T18:08:57;12.00;99.90
31799;DHT22;18374;51.136;3.502;2023-03-18T18:11:32;12.00;99.90
31799;DHT22;18374;51.136;3.502;2023-03-18T18:16:53;12.00;99.90
31799;DHT22;18374;51.136;3.502;2023-03-18T18:19:22;12.00;99.90
31799;DHT22;18374;51.136;3.502;2023-03-18T18:21:51;12.00;99.90
31799;DHT22;18374;51.136;3.502;2023-03-18T18:24:26;12.00;99.90
31799;DHT22;18374;51.136;3.502;2023-03-18T18:26:55;12.00;99.90
31799;DHT22;18374;51.136;3.502;2023-03-18T18:29:26;12.00;99.90
31799;DHT22;18374;51.136;3.502;2023-03-18T18:31:56;12.00;99.90
31799;DHT22;18374;51.136;3.502;2023-03-18T18:34:24;12.00;99.90
31799;DHT22;18374;51.136;3.502;2023-03-18T18:36:51;12.00;99.90
31799;DHT22;18374;51.136;3.502;2023-03-18T18:39:19;12.00;99.90
31799;DHT22;18374;51.136;3.502;2023-03-18T18:41:47;12.00;99.90
31799;DHT22;18374;51.136;3.502;2023-03-18T18:44:15;12.00;99.90